Kunming, China
Current Conditions -  °F | °C
As of 7:00 AM on Monday 22 Dec 2014 (Local Time) from ZPPP Reporting Station
Haze Haze  
Wind Chill: 24°   Ceiling: Unl
Heat Index: 30°   Visibility: 2.5mi
Dew Point: 30°   Wind: 7mph
Humidity: 100%   Direction: 240°WSW
Pressure: 30.24"   Gusts: NA
Location:  25.05°N, 102.7°E
Report Text: ZPPP 212300Z 24003MPS 4000 BR FEW016 M01/M01 Q1024 NOSIG
Loading
Personal Weather Stations






























Interactive Weather Map New forecast layout! Learn more

10-Day Weather Forecast

Advertisements
Track Severe Weather on mobile